sensor_id;sensor_type;location;lat;lon;timestamp;pressure;altitude;pressure_sealevel;temperature;humidity
77263;BME280;66373;52.334;4.806;2023-10-19T00:02:45;99142.91;;;16.60;61.89
77263;BME280;66373;52.334;4.806;2023-10-19T00:05:14;99131.06;;;16.53;61.89
77263;BME280;66373;52.334;4.806;2023-10-19T00:07:41;99130.88;;;16.58;62.04
77263;BME280;66373;52.334;4.806;2023-10-19T00:10:08;99126.66;;;16.55;61.95
77263;BME280;66373;52.334;4.806;2023-10-19T00:12:36;99141.03;;;16.64;61.63
77263;BME280;66373;52.334;4.806;2023-10-19T00:15:03;99136.69;;;16.65;61.86
77263;BME280;66373;52.334;4.806;2023-10-19T00:17:30;99131.59;;;16.61;61.85
77263;BME280;66373;52.334;4.806;2023-10-19T00:19:58;99092.59;;;16.43;61.81
77263;BME280;66373;52.334;4.806;2023-10-19T00:22:49;99120.50;;;16.58;61.64
77263;BME280;66373;52.334;4.806;2023-10-19T00:25:18;99120.50;;;16.58;61.72
77263;BME280;66373;52.334;4.806;2023-10-19T00:27:49;99111.28;;;16.51;61.98
77263;BME280;66373;52.334;4.806;2023-10-19T00:30:15;99130.69;;;16.62;61.88
77263;BME280;66373;52.334;4.806;2023-10-19T00:32:44;99132.31;;;16.65;61.80
77263;BME280;66373;52.334;4.806;2023-10-19T00:35:11;99093.38;;;16.45;61.73
77263;BME280;66373;52.334;4.806;2023-10-19T00:37:56;99114.59;;;16.54;62.04
77263;BME280;66373;52.334;4.806;2023-10-19T00:40:43;99094.47;;;16.39;61.96
77263;BME280;66373;52.334;4.806;2023-10-19T00:43:26;99134.06;;;16.65;61.73
77263;BME280;66373;52.334;4.806;2023-10-19T00:45:54;99121.22;;;16.61;61.77
77263;BME280;66373;52.334;4.806;2023-10-19T00:48:22;99111.88;;;16.57;61.65
77263;BME280;66373;52.334;4.806;2023-10-19T00:50:52;99116.03;;;16.61;61.83
77263;BME280;66373;52.334;4.806;2023-10-19T00:53:35;99090.59;;;16.49;61.80
77263;BME280;66373;52.334;4.806;2023-10-19T00:56:06;99114.34;;;16.60;61.70
77263;BME280;66373;52.334;4.806;2023-10-19T00:58:37;99094.94;;;16.49;61.83
77263;BME280;66373;52.334;4.806;2023-10-19T01:01:07;99113.25;;;16.66;61.59
77263;BME280;66373;52.334;4.806;2023-10-19T01:03:34;99112.41;;;16.66;61.52
77263;BME280;66373;52.334;4.806;2023-10-19T01:06:04;99048.41;;;16.24;61.34
77263;BME280;66373;52.334;4.806;2023-10-19T01:08:40;99107.22;;;16.66;61.58
77263;BME280;66373;52.334;4.806;2023-10-19T01:11:11;99110.66;;;16.66;61.66
77263;BME280;66373;52.334;4.806;2023-10-19T01:13:41;99114.09;;;16.67;61.65
77263;BME280;66373;52.334;4.806;2023-10-19T01:16:13;99110.72;;;16.65;61.54
77263;BME280;66373;52.334;4.806;2023-10-19T01:18:50;99109.75;;;16.67;61.81
77263;BME280;66373;52.334;4.806;2023-10-19T01:21:22;99092.84;;;16.57;61.35
77263;BME280;66373;52.334;4.806;2023-10-19T01:23:54;99103.91;;;16.62;61.78
77263;BME280;66373;52.334;4.806;2023-10-19T01:26:21;99084.34;;;16.53;61.77
77263;BME280;66373;52.334;4.806;2023-10-19T01:28:52;99095.25;;;16.61;61.52
77263;BME280;66373;52.334;4.806;2023-10-19T01:31:24;99098.72;;;16.62;61.55
77263;BME280;66373;52.334;4.806;2023-10-19T01:34:03;99109.75;;;16.67;61.73
77263;BME280;66373;52.334;4.806;2023-10-19T01:36:32;99068.84;;;16.52;61.64
77263;BME280;66373;52.334;4.806;2023-10-19T01:39:04;99101.13;;;16.67;61.57
77263;BME280;66373;52.334;4.806;2023-10-19T01:41:35;99076.81;;;16.47;61.44
77263;BME280;66373;52.334;4.806;2023-10-19T01:44:02;99058.13;;;16.39;61.88
77263;BME280;66373;52.334;4.806;2023-10-19T01:46:32;99099.44;;;16.66;61.63
77263;BME280;66373;52.334;4.806;2023-10-19T01:49:01;99078.31;;;16.53;61.71
77263;BME280;66373;52.334;4.806;2023-10-19T01:51:30;99062.88;;;16.50;61.67
77263;BME280;66373;52.334;4.806;2023-10-19T01:53:59;99073.91;;;16.55;61.60
77263;BME280;66373;52.334;4.806;2023-10-19T01:56:28;99064.50;;;16.52;61.38
77263;BME280;66373;52.334;4.806;2023-10-19T01:58:55;99045.50;;;16.32;61.76
77263;BME280;66373;52.334;4.806;2023-10-19T02:01:23;99087.59;;;16.58;61.77
77263;BME280;66373;52.334;4.806;2023-10-19T02:03:55;99098.50;;;16.67;61.69
77263;BME280;66373;52.334;4.806;2023-10-19T02:06:24;99093.31;;;16.67;61.44
77263;BME280;66373;52.334;4.806;2023-10-19T02:08:55;99083.06;;;16.63;61.47
77263;BME280;66373;52.334;4.806;2023-10-19T02:11:23;99053.34;;;16.50;61.67
77263;BME280;66373;52.334;4.806;2023-10-19T02:13:54;99056.84;;;16.49;61.56
77263;BME280;66373;52.334;4.806;2023-10-19T02:16:20;99064.50;;;16.52;61.41
77263;BME280;66373;52.334;4.806;2023-10-19T02:18:50;99066.13;;;16.55;61.35
77263;BME280;66373;52.334;4.806;2023-10-19T02:21:16;99066.91;;;16.57;61.73
77263;BME280;66373;52.334;4.806;2023-10-19T02:23:47;99074.31;;;16.66;61.55
77263;BME280;66373;52.334;4.806;2023-10-19T02:26:17;99041.34;;;16.48;61.38
77263;BME280;66373;52.334;4.806;2023-10-19T02:28:46;99062.44;;;16.60;61.40
77263;BME280;66373;52.334;4.806;2023-10-19T02:31:13;99030.50;;;16.38;61.41
77263;BME280;66373;52.334;4.806;2023-10-19T02:33:46;99057.38;;;16.57;61.67
77263;BME280;66373;52.334;4.806;2023-10-19T02:36:16;98999.13;;;16.24;61.45
77263;BME280;66373;52.334;4.806;2023-10-19T02:38:45;99066.44;;;16.68;61.62
77263;BME280;66373;52.334;4.806;2023-10-19T02:41:15;99049.56;;;16.57;61.45
77263;BME280;66373;52.334;4.806;2023-10-19T02:43:43;99052.88;;;16.61;61.51
77263;BME280;66373;52.334;4.806;2023-10-19T02:46:13;99047.81;;;16.58;61.39
77263;BME280;66373;52.334;4.806;2023-10-19T02:48:42;99060.63;;;16.62;61.39
77263;BME280;66373;52.334;4.806;2023-10-19T02:51:11;99038.41;;;16.55;61.58
77263;BME280;66373;52.334;4.806;2023-10-19T02:53:39;99042.63;;;16.58;61.57
77263;BME280;66373;52.334;4.806;2023-10-19T02:56:10;99052.81;;;16.62;61.46
77263;BME280;66373;52.334;4.806;2023-10-19T02:58:41;99056.97;;;16.67;61.46
77263;BME280;66373;52.334;4.806;2023-10-19T03:01:15;99055.28;;;16.66;61.43
77263;BME280;66373;52.334;4.806;2023-10-19T03:03:44;99048.41;;;16.65;61.47
77263;BME280;66373;52.334;4.806;2023-10-19T03:06:12;99036.47;;;16.60;61.55
77263;BME280;66373;52.334;4.806;2023-10-19T03:08:39;99037.13;;;16.66;61.48
77263;BME280;66373;52.334;4.806;2023-10-19T03:11:05;99045.75;;;16.66;61.38
77263;BME280;66373;52.334;4.806;2023-10-19T03:13:33;99024.53;;;16.56;61.08
77263;BME280;66373;52.334;4.806;2023-10-19T03:15:59;99026.34;;;16.54;61.11
77263;BME280;66373;52.334;4.806;2023-10-19T03:18:34;99039.84;;;16.62;61.40
77263;BME280;66373;52.334;4.806;2023-10-19T03:21:01;99020.31;;;16.54;61.41
77263;BME280;66373;52.334;4.806;2023-10-19T03:23:29;99047.50;;;16.66;61.34
77263;BME280;66373;52.334;4.806;2023-10-19T03:25:55;99003.44;;;16.44;61.42
77263;BME280;66373;52.334;4.806;2023-10-19T03:28:39;99017.91;;;16.49;61.44
77263;BME280;66373;52.334;4.806;2023-10-19T03:31:08;99036.28;;;16.65;61.43
77263;BME280;66373;52.334;4.806;2023-10-19T03:33:40;99044.91;;;16.66;61.36
77263;BME280;66373;52.334;4.806;2023-10-19T03:36:07;99024.53;;;16.56;61.33
77263;BME280;66373;52.334;4.806;2023-10-19T03:38:38;99038.03;;;16.65;61.50
77263;BME280;66373;52.334;4.806;2023-10-19T03:41:07;99026.34;;;16.54;61.51
77263;BME280;66373;52.334;4.806;2023-10-19T03:43:35;99020.19;;;16.57;61.38
77263;BME280;66373;52.334;4.806;2023-10-19T03:46:06;98972.16;;;16.28;61.45
77263;BME280;66373;52.334;4.806;2023-10-19T03:48:46;99012.59;;;16.52;61.24
77263;BME280;66373;52.334;4.806;2023-10-19T03:51:13;99015.00;;;16.57;61.32
77263;BME280;66373;52.334;4.806;2023-10-19T03:53:40;99031.09;;;16.65;61.40
77263;BME280;66373;52.334;4.806;2023-10-19T03:56:12;99015.13;;;16.54;61.21
77263;BME280;66373;52.334;4.806;2023-10-19T03:58:39;99023.44;;;16.62;61.40
77263;BME280;66373;52.334;4.806;2023-10-19T04:01:09;99030.44;;;16.60;61.45
77263;BME280;66373;52.334;4.806;2023-10-19T04:03:37;99040.63;;;16.65;61.36
77263;BME280;66373;52.334;4.806;2023-10-19T04:06:06;99009.34;;;16.47;61.51
77263;BME280;66373;52.334;4.806;2023-10-19T04:08:39;99037.19;;;16.64;61.44
77263;BME280;66373;52.334;4.806;2023-10-19T04:11:06;99026.22;;;16.57;61.63
77263;BME280;66373;52.334;4.806;2023-10-19T04:13:48;99016.09;;;16.51;61.46
77263;BME280;66373;52.334;4.806;2023-10-19T04:16:19;99014.34;;;16.52;61.39
77263;BME280;66373;52.334;4.806;2023-10-19T04:18:46;99034.78;;;16.59;61.55
77263;BME280;66373;52.334;4.806;2023-10-19T04:21:16;99036.34;;;16.63;61.58
77263;BME280;66373;52.334;4.806;2023-10-19T04:23:43;99011.03;;;16.48;61.63
77263;BME280;66373;52.334;4.806;2023-10-19T04:26:12;98996.56;;;16.43;61.52
77263;BME280;66373;52.334;4.806;2023-10-19T04:28:40;99029.53;;;16.61;61.36
77263;BME280;66373;52.334;4.806;2023-10-19T04:31:15;99030.28;;;16.63;61.52
77263;BME280;66373;52.334;4.806;2023-10-19T04:33:43;99014.28;;;16.53;61.49
77263;BME280;66373;52.334;4.806;2023-10-19T04:36:14;99029.47;;;16.62;61.66
77263;BME280;66373;52.334;4.806;2023-10-19T04:38:42;99029.47;;;16.62;61.31
77263;BME280;66373;52.334;4.806;2023-10-19T04:41:12;99003.38;;;16.45;61.31
77263;BME280;66373;52.334;4.806;2023-10-19T04:43:39;99000.59;;;16.50;61.33
77263;BME280;66373;52.334;4.806;2023-10-19T04:46:10;99014.22;;;16.55;61.45
77263;BME280;66373;52.334;4.806;2023-10-19T04:48:39;99011.56;;;16.56;61.43
77263;BME280;66373;52.334;4.806;2023-10-19T04:51:08;99003.31;;;16.47;61.47
77263;BME280;66373;52.334;4.806;2023-10-19T04:53:36;98993.13;;;16.42;61.26
77263;BME280;66373;52.334;4.806;2023-10-19T04:56:05;98968.63;;;16.29;61.57
77263;BME280;66373;52.334;4.806;2023-10-19T04:58:34;99022.59;;;16.61;61.27
77263;BME280;66373;52.334;4.806;2023-10-19T05:01:02;98988.00;;;16.41;61.57
77263;BME280;66373;52.334;4.806;2023-10-19T05:03:29;98991.66;;;16.37;61.66
77263;BME280;66373;52.334;4.806;2023-10-19T05:05:56;99030.50;;;16.58;61.47
77263;BME280;66373;52.334;4.806;2023-10-19T05:08:24;99026.09;;;16.60;61.35
77263;BME280;66373;52.334;4.806;2023-10-19T05:10:54;99028.03;;;16.55;61.48
77263;BME280;66373;52.334;4.806;2023-10-19T05:13:23;99010.31;;;16.45;61.76
77263;BME280;66373;52.334;4.806;2023-10-19T05:15:53;98993.47;;;16.35;61.61
77263;BME280;66373;52.334;4.806;2023-10-19T05:18:20;98991.94;;;16.31;61.73
77263;BME280;66373;52.334;4.806;2023-10-19T05:20:48;99021.53;;;16.45;61.82
77263;BME280;66373;52.334;4.806;2023-10-19T05:23:21;99052.88;;;16.61;61.93
77263;BME280;66373;52.334;4.806;2023-10-19T05:25:49;99033.34;;;16.52;61.81
77263;BME280;66373;52.334;4.806;2023-10-19T05:28:17;99041.84;;;16.56;61.96
77263;BME280;66373;52.334;4.806;2023-10-19T05:30:48;99038.16;;;16.61;61.98
77263;BME280;66373;52.334;4.806;2023-10-19T05:33:16;99041.66;;;16.60;62.03
77263;BME280;66373;52.334;4.806;2023-10-19T05:35:46;99006.41;;;16.36;61.80
77263;BME280;66373;52.334;4.806;2023-10-19T05:38:13;99044.53;;;16.54;61.77
77263;BME280;66373;52.334;4.806;2023-10-19T05:40:41;99049.44;;;16.60;62.12
77263;BME280;66373;52.334;4.806;2023-10-19T05:43:08;99055.53;;;16.59;61.96
77263;BME280;66373;52.334;4.806;2023-10-19T05:45:36;99062.44;;;16.60;61.90
77263;BME280;66373;52.334;4.806;2023-10-19T05:48:05;99067.63;;;16.60;62.12
77263;BME280;66373;52.334;4.806;2023-10-19T05:50:33;99044.84;;;16.47;62.11
77263;BME280;66373;52.334;4.806;2023-10-19T05:53:01;99066.97;;;16.55;61.88
77263;BME280;66373;52.334;4.806;2023-10-19T05:55:29;99075.41;;;16.60;62.16
77263;BME280;66373;52.334;4.806;2023-10-19T05:57:57;99055.69;;;16.56;62.14
77263;BME280;66373;52.334;4.806;2023-10-19T06:00:24;99065.94;;;16.59;62.30
77263;BME280;66373;52.334;4.806;2023-10-19T06:02:52;99058.16;;;16.59;62.42
77263;BME280;66373;52.334;4.806;2023-10-19T06:05:21;99052.25;;;16.56;62.27
77263;BME280;66373;52.334;4.806;2023-10-19T06:07:49;99020.28;;;16.35;62.47
77263;BME280;66373;52.334;4.806;2023-10-19T06:10:18;99058.16;;;16.59;62.44
77263;BME280;66373;52.334;4.806;2023-10-19T06:12:49;99042.06;;;16.51;62.59
77263;BME280;66373;52.334;4.806;2023-10-19T06:15:17;99047.13;;;16.54;62.79
77263;BME280;66373;52.334;4.806;2023-10-19T06:17:47;99040.50;;;16.47;62.88
77263;BME280;66373;52.334;4.806;2023-10-19T06:20:15;99047.13;;;16.54;62.89
77263;BME280;66373;52.334;4.806;2023-10-19T06:22:53;99067.63;;;16.60;62.94
77263;BME280;66373;52.334;4.806;2023-10-19T06:25:23;99062.56;;;16.57;62.89
77263;BME280;66373;52.334;4.806;2023-10-19T06:27:51;99065.94;;;16.59;62.82
77263;BME280;66373;52.334;4.806;2023-10-19T06:30:19;99051.66;;;16.49;62.56
77263;BME280;66373;52.334;4.806;2023-10-19T06:32:49;99069.56;;;16.55;62.77
77263;BME280;66373;52.334;4.806;2023-10-19T06:35:17;99064.63;;;16.49;62.58
77263;BME280;66373;52.334;4.806;2023-10-19T06:37:44;99019.09;;;16.22;63.10
77263;BME280;66373;52.334;4.806;2023-10-19T06:40:15;99083.44;;;16.54;62.95
77263;BME280;66373;52.334;4.806;2023-10-19T06:42:42;99047.91;;;16.36;63.05
77263;BME280;66373;52.334;4.806;2023-10-19T06:45:11;99091.88;;;16.59;62.86
77263;BME280;66373;52.334;4.806;2023-10-19T06:47:40;99084.16;;;16.58;62.87
77263;BME280;66373;52.334;4.806;2023-10-19T06:50:08;99029.72;;;16.16;62.83
77263;BME280;66373;52.334;4.806;2023-10-19T06:52:36;99090.47;;;16.52;62.79
77263;BME280;66373;52.334;4.806;2023-10-19T06:55:04;99084.63;;;16.47;63.03
77263;BME280;66373;52.334;4.806;2023-10-19T06:57:34;99108.25;;;16.61;62.92
77263;BME280;66373;52.334;4.806;2023-10-19T07:00:01;99111.75;;;16.60;62.87
77263;BME280;66373;52.334;4.806;2023-10-19T07:02:40;99099.03;;;16.54;62.79
77263;BME280;66373;52.334;4.806;2023-10-19T07:05:08;99073.69;;;16.39;62.76
77263;BME280;66373;52.334;4.806;2023-10-19T07:07:39;99105.00;;;16.56;62.64
77263;BME280;66373;52.334;4.806;2023-10-19T07:10:07;99056.00;;;16.28;62.61
77263;BME280;66373;52.334;4.806;2023-10-19T07:12:36;99115.44;;;16.55;62.61
77263;BME280;66373;52.334;4.806;2023-10-19T07:15:05;99114.34;;;16.60;62.56
77263;BME280;66373;52.334;4.806;2023-10-19T07:17:33;99117.72;;;16.62;62.72
77263;BME280;66373;52.334;4.806;2023-10-19T07:20:04;99073.91;;;16.35;62.59
77263;BME280;66373;52.334;4.806;2023-10-19T07:22:35;99051.31;;;16.16;62.63
77263;BME280;66373;52.334;4.806;2023-10-19T07:25:04;99078.22;;;16.36;62.61
77263;BME280;66373;52.334;4.806;2023-10-19T07:27:34;99114.34;;;16.60;62.73
77263;BME280;66373;52.334;4.806;2023-10-19T07:30:03;99123.69;;;16.65;62.56
77263;BME280;66373;52.334;4.806;2023-10-19T07:32:35;99133.16;;;16.66;62.60
77263;BME280;66373;52.334;4.806;2023-10-19T07:35:02;99081.72;;;16.35;62.38
77263;BME280;66373;52.334;4.806;2023-10-19T07:37:29;99123.88;;;16.60;62.32
77263;BME280;66373;52.334;4.806;2023-10-19T07:39:57;99114.53;;;16.56;62.61
77263;BME280;66373;52.334;4.806;2023-10-19T07:42:24;99038.94;;;16.03;62.27
77263;BME280;66373;52.334;4.806;2023-10-19T07:44:51;99138.25;;;16.69;62.49
77263;BME280;66373;52.334;4.806;2023-10-19T07:47:20;99122.06;;;16.62;62.60
77263;BME280;66373;52.334;4.806;2023-10-19T07:49:47;99128.91;;;16.63;62.45
77263;BME280;66373;52.334;4.806;2023-10-19T07:52:17;99129.78;;;16.63;62.67
77263;BME280;66373;52.334;4.806;2023-10-19T07:54:44;99107.84;;;16.50;62.39
77263;BME280;66373;52.334;4.806;2023-10-19T07:57:12;99122.25;;;16.57;62.34
77263;BME280;66373;52.334;4.806;2023-10-19T07:59:39;99062.28;;;16.23;62.60
77263;BME280;66373;52.334;4.806;2023-10-19T08:02:07;99128.09;;;16.62;62.39
77263;BME280;66373;52.334;4.806;2023-10-19T08:04:36;99136.69;;;16.65;62.60
77263;BME280;66373;52.334;4.806;2023-10-19T08:07:03;99099.53;;;16.42;62.53
77263;BME280;66373;52.334;4.806;2023-10-19T08:09:30;99133.03;;;16.69;62.39
77263;BME280;66373;52.334;4.806;2023-10-19T08:12:00;99120.38;;;16.61;62.46
77263;BME280;66373;52.334;4.806;2023-10-19T08:14:31;99126.28;;;16.65;62.74
77263;BME280;66373;52.334;4.806;2023-10-19T08:16:58;99143.19;;;16.75;62.34
77263;BME280;66373;52.334;4.806;2023-10-19T08:19:27;99130.38;;;16.70;62.59
77263;BME280;66373;52.334;4.806;2023-10-19T08:21:58;99139.69;;;16.76;62.34
77263;BME280;66373;52.334;4.806;2023-10-19T08:24:25;99137.06;;;16.76;62.49
77263;BME280;66373;52.334;4.806;2023-10-19T08:26:59;99071.31;;;16.35;62.24
77263;BME280;66373;52.334;4.806;2023-10-19T08:29:32;99137.97;;;16.75;62.72
77263;BME280;66373;52.334;4.806;2023-10-19T08:32:02;99099.16;;;16.51;62.53
77263;BME280;66373;52.334;4.806;2023-10-19T08:34:40;99094.03;;;16.50;62.61
77263;BME280;66373;52.334;4.806;2023-10-19T08:37:09;99101.75;;;16.51;62.64
77263;BME280;66373;52.334;4.806;2023-10-19T08:39:39;99059.03;;;16.18;62.29
77263;BME280;66373;52.334;4.806;2023-10-19T08:42:09;99146.44;;;16.80;62.42
77263;BME280;66373;52.334;4.806;2023-10-19T08:44:38;99080.44;;;16.43;62.44
77263;BME280;66373;52.334;4.806;2023-10-19T08:47:07;99082.00;;;16.47;62.18
77263;BME280;66373;52.334;4.806;2023-10-19T08:49:39;99091.44;;;16.50;62.35
77263;BME280;66373;52.334;4.806;2023-10-19T08:52:14;99056.59;;;16.35;62.34
77263;BME280;66373;52.334;4.806;2023-10-19T08:54:44;99094.69;;;16.55;62.32
77263;BME280;66373;52.334;4.806;2023-10-19T08:57:25;99120.06;;;16.69;62.60
77263;BME280;66373;52.334;4.806;2023-10-19T09:00:09;99072.53;;;16.46;62.21
77263;BME280;66373;52.334;4.806;2023-10-19T09:02:39;99112.28;;;16.69;62.18
77263;BME280;66373;52.334;4.806;2023-10-19T09:05:06;99074.16;;;16.49;62.38
77263;BME280;66373;52.334;4.806;2023-10-19T09:07:43;99135.78;;;16.86;62.34
77263;BME280;66373;52.334;4.806;2023-10-19T09:10:16;99046.91;;;16.39;62.12
77263;BME280;66373;52.334;4.806;2023-10-19T09:13:02;99118.66;;;16.82;62.34
77263;BME280;66373;52.334;4.806;2023-10-19T09:15:38;99088.13;;;16.67;61.96
77263;BME280;66373;52.334;4.806;2023-10-19T09:18:12;99037.91;;;16.47;62.13
77263;BME280;66373;52.334;4.806;2023-10-19T09:20:42;98995.09;;;16.17;62.09
77263;BME280;66373;52.334;4.806;2023-10-19T09:23:22;99057.50;;;16.54;61.94
77263;BME280;66373;52.334;4.806;2023-10-19T09:25:51;99019.50;;;16.33;62.26
77263;BME280;66373;52.334;4.806;2023-10-19T09:28:19;99055.81;;;16.53;62.02
77263;BME280;66373;52.334;4.806;2023-10-19T09:30:46;99015.22;;;16.32;62.20
77263;BME280;66373;52.334;4.806;2023-10-19T09:33:15;99081.72;;;16.75;61.76
77263;BME280;66373;52.334;4.806;2023-10-19T09:35:45;98979.53;;;16.17;61.88
77263;BME280;66373;52.334;4.806;2023-10-19T09:38:14;99073.13;;;16.73;61.78
77263;BME280;66373;52.334;4.806;2023-10-19T09:40:43;99043.53;;;16.57;61.94
77263;BME280;66373;52.334;4.806;2023-10-19T09:43:19;99065.53;;;16.69;61.74
77263;BME280;66373;52.334;4.806;2023-10-19T09:45:51;99050.50;;;16.56;61.93
77263;BME280;66373;52.334;4.806;2023-10-19T09:48:20;99093.09;;;16.91;61.70
77263;BME280;66373;52.334;4.806;2023-10-19T09:50:52;99001.88;;;16.40;61.92
77263;BME280;66373;52.334;4.806;2023-10-19T09:53:22;98993.31;;;16.38;61.99
77263;BME280;66373;52.334;4.806;2023-10-19T09:55:54;99081.72;;;16.94;61.94
77263;BME280;66373;52.334;4.806;2023-10-19T09:58:27;99008.97;;;16.56;61.90
77263;BME280;66373;52.334;4.806;2023-10-19T10:00:56;99014.16;;;16.56;61.69
77263;BME280;66373;52.334;4.806;2023-10-19T10:03:45;99019.88;;;16.63;61.90
77263;BME280;66373;52.334;4.806;2023-10-19T10:06:13;99022.44;;;16.65;61.76
77263;BME280;66373;52.334;4.806;2023-10-19T10:08:46;99043.41;;;16.80;61.94
77263;BME280;66373;52.334;4.806;2023-10-19T10:11:20;99046.06;;;16.79;61.81
77263;BME280;66373;52.334;4.806;2023-10-19T10:13:49;99078.66;;;17.05;61.76
77263;BME280;66373;52.334;4.806;2023-10-19T10:16:25;99074.19;;;17.08;61.75
77263;BME280;66373;52.334;4.806;2023-10-19T10:18:57;99063.22;;;17.02;61.60
77263;BME280;66373;52.334;4.806;2023-10-19T10:21:26;98972.38;;;16.42;61.85
77263;BME280;66373;52.334;4.806;2023-10-19T10:23:55;99016.22;;;16.69;61.53
77263;BME280;66373;52.334;4.806;2023-10-19T10:26:25;99087.94;;;17.10;61.82
77263;BME280;66373;52.334;4.806;2023-10-19T10:29:10;99062.66;;;16.95;61.58
77263;BME280;66373;52.334;4.806;2023-10-19T10:31:41;99080.56;;;17.01;61.63
77263;BME280;66373;52.334;4.806;2023-10-19T10:34:09;99091.53;;;17.08;61.86
77263;BME280;66373;52.334;4.806;2023-10-19T10:36:57;99063.56;;;16.94;61.77
77263;BME280;66373;52.334;4.806;2023-10-19T10:39:26;99094.75;;;17.13;61.68
77263;BME280;66373;52.334;4.806;2023-10-19T10:41:58;99074.59;;;16.99;61.52
77263;BME280;66373;52.334;4.806;2023-10-19T10:44:36;99051.13;;;16.82;61.73
77263;BME280;66373;52.334;4.806;2023-10-19T10:47:06;99063.41;;;16.97;61.68
77263;BME280;66373;52.334;4.806;2023-10-19T10:49:34;99048.41;;;16.85;61.85
77263;BME280;66373;52.334;4.806;2023-10-19T10:52:01;99075.28;;;17.03;61.62
77263;BME280;66373;52.334;4.806;2023-10-19T10:54:28;99023.59;;;16.78;61.63
77263;BME280;66373;52.334;4.806;2023-10-19T10:56:55;99064.69;;;17.07;61.46
77263;BME280;66373;52.334;4.806;2023-10-19T10:59:24;99056.63;;;17.13;61.77
77263;BME280;66373;52.334;4.806;2023-10-19T11:01:51;99048.34;;;17.05;61.66
77263;BME280;66373;52.334;4.806;2023-10-19T11:04:18;99063.53;;;17.14;61.82
77263;BME280;66373;52.334;4.806;2023-10-19T11:06:48;99038.63;;;16.90;61.77
77263;BME280;66373;52.334;4.806;2023-10-19T11:09:15;99048.75;;;16.96;61.83
77263;BME280;66373;52.334;4.806;2023-10-19T11:11:44;99043.41;;;16.99;61.66
77263;BME280;66373;52.334;4.806;2023-10-19T11:14:12;99060.28;;;17.09;61.93
77263;BME280;66373;52.334;4.806;2023-10-19T11:16:40;99056.00;;;17.08;61.72
77263;BME280;66373;52.334;4.806;2023-10-19T11:19:09;99071.94;;;17.19;61.83
77263;BME280;66373;52.334;4.806;2023-10-19T11:21:36;99070.16;;;17.20;61.88
77263;BME280;66373;52.334;4.806;2023-10-19T11:24:04;98983.44;;;16.66;61.83
77263;BME280;66373;52.334;4.806;2023-10-19T11:26:39;99046.66;;;17.04;61.79
77263;BME280;66373;52.334;4.806;2023-10-19T11:29:06;99064.00;;;17.22;61.77
77263;BME280;66373;52.334;4.806;2023-10-19T11:31:35;99020.19;;;16.96;61.86
77263;BME280;66373;52.334;4.806;2023-10-19T11:34:06;99042.16;;;17.08;61.54
77263;BME280;66373;52.334;4.806;2023-10-19T11:36:34;99012.53;;;16.93;61.61
77263;BME280;66373;52.334;4.806;2023-10-19T11:39:01;98999.19;;;16.82;61.65
77263;BME280;66373;52.334;4.806;2023-10-19T11:41:30;99068.16;;;17.26;61.92
77263;BME280;66373;52.334;4.806;2023-10-19T11:43:57;98968.44;;;16.73;61.75
77263;BME280;66373;52.334;4.806;2023-10-19T11:46:25;98994.47;;;16.90;61.86
77263;BME280;66373;52.334;4.806;2023-10-19T11:48:53;98973.50;;;16.76;61.52
77263;BME280;66373;52.334;4.806;2023-10-19T11:51:21;98987.31;;;16.95;61.86
77263;BME280;66373;52.334;4.806;2023-10-19T11:53:48;99003.13;;;17.09;62.19
77263;BME280;66373;52.334;4.806;2023-10-19T11:56:16;99013.06;;;17.18;61.96
77263;BME280;66373;52.334;4.806;2023-10-19T11:58:43;98970.69;;;16.99;61.93
77263;BME280;66373;52.334;4.806;2023-10-19T12:01:12;98905.00;;;16.59;62.23
77263;BME280;66373;52.334;4.806;2023-10-19T12:03:42;98977.00;;;17.12;62.17
77263;BME280;66373;52.334;4.806;2023-10-19T12:06:12;98994.41;;;17.29;62.30
77263;BME280;66373;52.334;4.806;2023-10-19T12:08:46;98950.47;;;17.06;62.09
77263;BME280;66373;52.334;4.806;2023-10-19T12:11:13;98974.25;;;17.15;61.94
77263;BME280;66373;52.334;4.806;2023-10-19T12:13:50;99012.09;;;17.40;61.85
77263;BME280;66373;52.334;4.806;2023-10-19T12:16:26;98916.16;;;16.99;61.83
77263;BME280;66373;52.334;4.806;2023-10-19T12:19:00;98965.59;;;17.34;62.08
77263;BME280;66373;52.334;4.806;2023-10-19T12:21:29;98916.78;;;17.04;61.88
77263;BME280;66373;52.334;4.806;2023-10-19T12:23:59;98973.00;;;17.41;61.85
77263;BME280;66373;52.334;4.806;2023-10-19T12:26:27;98953.44;;;17.34;61.98
77263;BME280;66373;52.334;4.806;2023-10-19T12:28:55;98936.53;;;17.25;61.81
77263;BME280;66373;52.334;4.806;2023-10-19T12:31:23;98964.41;;;17.41;61.76
77263;BME280;66373;52.334;4.806;2023-10-19T12:33:51;98925.09;;;17.29;62.13
77263;BME280;66373;52.334;4.806;2023-10-19T12:36:19;98935.19;;;17.36;61.90
77263;BME280;66373;52.334;4.806;2023-10-19T12:38:58;98929.66;;;17.42;62.08
77263;BME280;66373;52.334;4.806;2023-10-19T12:41:27;98899.38;;;17.23;62.10
77263;BME280;66373;52.334;4.806;2023-10-19T12:43:55;98904.22;;;17.31;61.83
77263;BME280;66373;52.334;4.806;2023-10-19T12:46:27;98907.59;;;17.33;62.21
77263;BME280;66373;52.334;4.806;2023-10-19T12:48:56;98961.47;;;17.66;62.03
77263;BME280;66373;52.334;4.806;2023-10-19T12:51:24;98942.84;;;17.56;62.26
77263;BME280;66373;52.334;4.806;2023-10-19T12:53:51;98881.88;;;17.27;62.05
77263;BME280;66373;52.334;4.806;2023-10-19T12:56:21;98992.97;;;17.94;61.98
77263;BME280;66373;52.334;4.806;2023-10-19T12:58:50;98938.19;;;17.62;61.73
77263;BME280;66373;52.334;4.806;2023-10-19T13:01:17;98923.41;;;17.65;62.20
77263;BME280;66373;52.334;4.806;2023-10-19T13:03:45;98917.63;;;17.58;62.07
77263;BME280;66373;52.334;4.806;2023-10-19T13:06:15;98878.38;;;17.45;61.74
77263;BME280;66373;52.334;4.806;2023-10-19T13:08:45;98924.06;;;17.68;61.93
77263;BME280;66373;52.334;4.806;2023-10-19T13:11:13;98906.91;;;17.64;61.83
77263;BME280;66373;52.334;4.806;2023-10-19T13:13:42;98991.38;;;18.09;62.18
77263;BME280;66373;52.334;4.806;2023-10-19T13:16:09;98973.16;;;18.09;62.13